createdAt,value
2024-03-02T00:16:50.786Z,100911.16
2024-03-02T00:19:55.813Z,100894.56
2024-03-02T00:23:00.588Z,100894.56
2024-03-02T00:49:56.178Z,100897.41
2024-03-02T00:58:59.930Z,100870.66
2024-03-02T01:02:27.890Z,100859.03
2024-03-02T01:05:22.519Z,100847.25
2024-03-02T01:08:08.114Z,100847.16
2024-03-02T01:11:24.108Z,100840.63
2024-03-02T01:14:24.505Z,100851.78
2024-03-02T01:17:22.238Z,100853.00
2024-03-02T01:47:45.012Z,100824.19
2024-03-02T01:57:19.580Z,100816.22
2024-03-02T02:03:05.368Z,100809.06
2024-03-02T02:12:15.886Z,100779.34
2024-03-02T02:15:26.271Z,100770.22
2024-03-02T02:22:13.710Z,100770.88
2024-03-02T02:27:23.326Z,100772.88
2024-03-02T02:30:18.545Z,100752.59
2024-03-02T02:33:19.830Z,100774.69
2024-03-02T02:35:45.482Z,100808.88
2024-03-02T02:38:16.504Z,100789.75
2024-03-02T02:40:46.056Z,100770.28
2024-03-02T02:43:14.782Z,100769.13
2024-03-02T02:45:45.630Z,100771.69
2024-03-02T02:48:19.850Z,100791.16
2024-03-02T02:50:50.974Z,100793.91
2024-03-02T02:53:18.939Z,100802.81
2024-03-02T02:55:47.444Z,100794.94
2024-03-02T03:00:45.527Z,100796.84
2024-03-02T03:03:13.750Z,100790.69
2024-03-02T03:05:42.737Z,100775.38
2024-03-02T03:08:13.528Z,100789.44
2024-03-02T03:10:42.309Z,100781.38
2024-03-02T03:13:13.661Z,100778.59
2024-03-02T03:15:44.437Z,100770.63
2024-03-02T03:18:15.139Z,100775.75
2024-03-02T03:20:45.904Z,100776.69
2024-03-02T03:23:17.353Z,100767.03
2024-03-02T03:25:45.945Z,100773.28
2024-03-02T03:28:13.864Z,100748.63
2024-03-02T03:30:45.126Z,100752.44
2024-03-02T03:33:13.062Z,100730.53
2024-03-02T03:35:40.991Z,100720.94
2024-03-02T03:38:08.876Z,100749.44
2024-03-02T03:40:36.838Z,100762.72
2024-03-02T03:43:05.252Z,100761.97
2024-03-02T03:45:45.561Z,100754.84
2024-03-02T03:48:45.647Z,100753.81
2024-03-02T03:51:13.727Z,100746.47
2024-03-02T03:53:43.989Z,100744.47
2024-03-02T03:56:12.267Z,100721.41
2024-03-02T03:58:40.289Z,100755.94
2024-03-02T04:01:08.575Z,100726.50
2024-03-02T04:06:10.154Z,100732.38
2024-03-02T04:08:43.626Z,100741.19
2024-03-02T04:11:11.997Z,100725.91
2024-03-02T04:13:40.288Z,100741.66
2024-03-02T04:16:10.282Z,100741.56
2024-03-02T04:18:39.074Z,100743.91
2024-03-02T04:21:07.412Z,100749.09
2024-03-02T04:23:35.390Z,100749.00
2024-03-02T04:26:03.877Z,100746.13
2024-03-02T04:28:35.066Z,100743.38
2024-03-02T04:31:03.604Z,100753.78
2024-03-02T04:33:31.727Z,100768.69
2024-03-02T04:36:01.539Z,100757.97
2024-03-02T04:38:36.877Z,100745.53
2024-03-02T04:41:04.826Z,100751.69
2024-03-02T04:43:33.809Z,100751.69
2024-03-02T04:46:12.895Z,100745.44
2024-03-02T04:48:43.824Z,100735.53
2024-03-02T04:51:11.823Z,100740.00
2024-03-02T04:53:43.062Z,100713.44
2024-03-02T04:56:49.150Z,100709.91
2024-03-02T04:59:17.602Z,100715.31
2024-03-02T05:01:45.701Z,100749.78
2024-03-02T05:04:13.698Z,100741.91
2024-03-02T05:06:54.663Z,100741.91
2024-03-02T05:09:26.029Z,100744.66
2024-03-02T05:12:31.244Z,100758.84
2024-03-02T05:14:59.547Z,100771.25
2024-03-02T05:17:27.446Z,100775.63
2024-03-02T05:19:55.332Z,100775.63
2024-03-02T05:22:23.271Z,100772.13
2024-03-02T05:24:51.251Z,100769.53
2024-03-02T05:27:19.216Z,100762.53
2024-03-02T05:29:47.132Z,100757.31
2024-03-02T05:32:15.077Z,100768.81
2024-03-02T05:34:43.122Z,100753.91
2024-03-02T05:37:11.242Z,100764.63
2024-03-02T05:39:39.254Z,100779.75
2024-03-02T05:42:07.908Z,100760.31
2024-03-02T05:44:35.805Z,100756.88
2024-03-02T05:47:05.147Z,100751.66
2024-03-02T05:49:33.289Z,100748.16
2024-03-02T05:52:01.480Z,100766.00
2024-03-02T05:54:29.904Z,100756.25
2024-03-02T05:56:57.851Z,100761.66
2024-03-02T05:59:25.753Z,100768.75
2024-03-02T06:01:53.925Z,100776.72
2024-03-02T06:04:21.877Z,100768.75
2024-03-02T06:06:51.549Z,100771.41
2024-03-02T06:09:19.983Z,100762.59
2024-03-02T06:11:48.433Z,100760.78
2024-03-02T06:14:16.305Z,100751.88
2024-03-02T06:16:44.211Z,100752.72
2024-03-02T06:19:12.176Z,100766.75
2024-03-02T06:21:40.187Z,100756.13
2024-03-02T06:24:08.452Z,100764.09
2024-03-02T06:26:36.516Z,100764.09
2024-03-02T06:29:04.777Z,100767.59
2024-03-02T06:31:32.780Z,100772.91
2024-03-02T06:34:00.967Z,100772.09
2024-03-02T06:36:32.000Z,100780.06
2024-03-02T06:39:00.114Z,100774.63
2024-03-02T06:41:28.747Z,100764.09
2024-03-02T06:44:01.641Z,100764.94
2024-03-02T06:46:29.662Z,100784.50
2024-03-02T06:48:57.734Z,100778.34
2024-03-02T06:51:25.831Z,100774.94
2024-03-02T06:53:53.761Z,100779.28
2024-03-02T06:56:21.742Z,100792.69
2024-03-02T06:58:49.775Z,100793.66
2024-03-02T07:01:17.832Z,100794.59
2024-03-02T07:03:46.152Z,100793.72
2024-03-02T07:06:14.125Z,100794.69
2024-03-02T07:08:42.034Z,100789.50
2024-03-02T07:11:09.977Z,100800.97
2024-03-02T07:13:37.929Z,100796.69
2024-03-02T07:16:06.042Z,100805.53
2024-03-02T07:18:35.406Z,100799.44
2024-03-02T07:21:03.345Z,100796.91
2024-03-02T07:23:32.224Z,100803.09
2024-03-02T07:28:34.228Z,100786.25
2024-03-02T07:31:03.094Z,100787.22
2024-03-02T07:33:31.322Z,100805.81
2024-03-02T07:36:04.231Z,100820.91
2024-03-02T07:38:33.797Z,100822.72
2024-03-02T07:41:02.492Z,100819.19
2024-03-02T07:43:30.732Z,100811.31
2024-03-02T07:45:59.093Z,100798.91
2024-03-02T07:48:29.596Z,100799.75
2024-03-02T07:50:57.951Z,100812.94
2024-03-02T07:53:25.952Z,100810.28
2024-03-02T07:55:53.958Z,100795.28
2024-03-02T07:58:21.973Z,100806.00
2024-03-02T08:00:51.727Z,100814.09
2024-03-02T08:03:21.346Z,100815.16
2024-03-02T08:05:49.238Z,100804.59
2024-03-02T08:08:20.231Z,100803.03
2024-03-02T08:10:48.290Z,100798.66
2024-03-02T08:13:16.309Z,100800.56
2024-03-02T08:15:44.290Z,100785.69
2024-03-02T08:18:12.366Z,100781.31
2024-03-02T08:20:43.226Z,100778.75
2024-03-02T08:23:11.281Z,100794.69
2024-03-02T08:25:39.308Z,100794.78
2024-03-02T08:28:07.564Z,100794.06
2024-03-02T08:30:35.622Z,100802.97
2024-03-02T08:33:03.578Z,100803.91
2024-03-02T08:35:31.690Z,100798.59
2024-03-02T08:37:59.789Z,100792.44
2024-03-02T08:40:27.715Z,100790.72
2024-03-02T08:42:55.847Z,100797.84
2024-03-02T08:45:27.105Z,100813.78
2024-03-02T08:47:55.085Z,100802.38
2024-03-02T08:50:23.173Z,100809.50
2024-03-02T08:52:51.174Z,100805.03
2024-03-02T08:55:19.313Z,100805.91
2024-03-02T08:57:53.513Z,100812.06
2024-03-02T09:00:21.788Z,100807.59
2024-03-02T09:02:51.609Z,100790.81
2024-03-02T09:05:19.556Z,100789.09
2024-03-02T09:07:49.388Z,100777.66
2024-03-02T09:10:17.856Z,100805.03
2024-03-02T09:12:45.859Z,100819.25
2024-03-02T09:15:13.824Z,100844.03
2024-03-02T09:17:42.404Z,100869.72
2024-03-02T09:20:13.348Z,100888.25
2024-03-02T09:22:41.243Z,100886.44
2024-03-02T09:25:10.644Z,100884.63
2024-03-02T09:27:39.676Z,100888.16
2024-03-02T09:30:10.072Z,100886.44
2024-03-02T09:32:38.859Z,100881.22
2024-03-02T09:35:07.380Z,100896.28
2024-03-02T09:37:35.731Z,100897.22
2024-03-02T09:40:04.014Z,100890.19
2024-03-02T09:42:32.384Z,100885.81
2024-03-02T09:45:00.459Z,100882.41
2024-03-02T09:47:28.381Z,100871.81
2024-03-02T09:50:03.644Z,100868.41
2024-03-02T09:52:33.103Z,100869.25
2024-03-02T09:55:01.088Z,100862.31
2024-03-02T09:57:29.155Z,100868.66
2024-03-02T09:59:57.067Z,100864.31
2024-03-02T10:02:25.175Z,100871.50
2024-03-02T10:04:53.107Z,100868.97
2024-03-02T10:07:21.652Z,100861.97
2024-03-02T10:09:50.750Z,100863.75
2024-03-02T10:12:19.526Z,100855.88
2024-03-02T10:14:47.759Z,100863.94
2024-03-02T10:17:17.399Z,100859.56
2024-03-02T10:19:45.265Z,100861.47
2024-03-02T10:22:13.267Z,100852.69
2024-03-02T10:24:41.257Z,100848.31
2024-03-02T10:27:19.930Z,100849.34
2024-03-02T10:29:49.151Z,100857.41
2024-03-02T10:32:17.569Z,100852.09
2024-03-02T10:34:47.025Z,100844.31
2024-03-02T10:37:15.174Z,100837.28
2024-03-02T10:39:43.183Z,100837.28
2024-03-02T10:42:11.469Z,100810.00
2024-03-02T10:44:39.734Z,100834.00
2024-03-02T10:47:07.720Z,100853.59
2024-03-02T10:49:35.775Z,100854.53
2024-03-02T10:52:04.195Z,100866.13
2024-03-02T10:54:38.541Z,100860.81
2024-03-02T10:57:07.601Z,100865.34
2024-03-02T10:59:37.407Z,100856.34
2024-03-02T11:02:06.833Z,100864.22
2024-03-02T11:04:36.837Z,100856.25
2024-03-02T11:07:06.510Z,100857.97
2024-03-02T11:09:39.418Z,100872.94
2024-03-02T11:12:21.506Z,100869.44
2024-03-02T11:14:49.437Z,100857.00
2024-03-02T11:17:20.514Z,100867.63
2024-03-02T11:19:49.490Z,100882.72
2024-03-02T11:22:17.862Z,100885.47
2024-03-02T11:24:53.619Z,100873.13
2024-03-02T11:27:40.190Z,100888.22
2024-03-02T11:30:09.149Z,100892.78
2024-03-02T11:32:37.211Z,100881.38
2024-03-02T11:35:05.325Z,100885.84
2024-03-02T11:37:33.285Z,100869.13
2024-03-02T11:40:01.391Z,100874.44
2024-03-02T11:42:29.493Z,100879.00
2024-03-02T11:44:58.794Z,100902.97
2024-03-02T11:47:34.826Z,100916.34
2024-03-02T11:50:03.789Z,100893.41
2024-03-02T11:52:35.184Z,100901.47
2024-03-02T11:55:05.469Z,100894.44
2024-03-02T11:57:33.740Z,100906.09
2024-03-02T12:00:03.284Z,100900.97
2024-03-02T12:02:31.296Z,100911.56
2024-03-02T12:04:59.462Z,100919.63
2024-03-02T12:07:30.292Z,100920.50
2024-03-02T12:10:05.515Z,100921.44
2024-03-02T12:12:37.214Z,100918.03
2024-03-02T12:15:05.370Z,100930.41
2024-03-02T12:17:33.302Z,100932.31
2024-03-02T12:20:01.222Z,100950.06
2024-03-02T12:22:29.158Z,100941.41
2024-03-02T12:24:57.178Z,100928.22
2024-03-02T12:27:25.210Z,100928.41
2024-03-02T12:29:53.093Z,100918.94
2024-03-02T12:32:21.412Z,100919.94
2024-03-02T12:34:49.766Z,100914.75
2024-03-02T12:37:24.863Z,100915.00
2024-03-02T12:39:53.168Z,100915.19
2024-03-02T12:42:21.110Z,100914.50
2024-03-02T12:44:49.216Z,100907.59
2024-03-02T12:47:17.193Z,100919.22
2024-03-02T12:49:48.124Z,100915.03
2024-03-02T12:52:16.367Z,100917.88
2024-03-02T12:54:44.430Z,100916.34
2024-03-02T12:57:18.956Z,100913.88
2024-03-02T12:59:49.901Z,100905.16
2024-03-02T13:02:26.625Z,100907.97
2024-03-02T13:04:58.465Z,100910.78
2024-03-02T13:07:27.599Z,100912.59
2024-03-02T13:10:00.334Z,100909.19
2024-03-02T13:12:28.303Z,100916.38
2024-03-02T13:14:56.500Z,100924.31
2024-03-02T13:17:24.544Z,100919.09
2024-03-02T13:19:55.206Z,100926.28
2024-03-02T13:22:23.624Z,100959.97
2024-03-02T13:24:59.479Z,100996.22
2024-03-02T13:27:27.445Z,100997.06
2024-03-02T13:29:56.460Z,100984.78
2024-03-02T13:32:26.243Z,100989.38
2024-03-02T13:34:54.838Z,100984.25
2024-03-02T13:37:23.409Z,100985.44
2024-03-02T13:39:51.456Z,100982.97
2024-03-02T13:42:19.772Z,100983.22
2024-03-02T13:44:50.168Z,100980.78
2024-03-02T13:47:18.085Z,100995.91
2024-03-02T13:49:48.659Z,100997.88
2024-03-02T13:52:16.914Z,101011.38
2024-03-02T13:54:48.735Z,101000.81
2024-03-02T13:57:28.403Z,100995.88
2024-03-02T13:59:56.768Z,100992.63
2024-03-02T14:02:28.415Z,100989.25
2024-03-02T14:04:56.448Z,100987.63
2024-03-02T14:07:24.399Z,100989.50
2024-03-02T14:09:52.378Z,100997.47
2024-03-02T14:12:24.375Z,100987.72
2024-03-02T14:14:55.371Z,100995.56
2024-03-02T14:17:24.687Z,101000.88
2024-03-02T14:19:56.454Z,101003.47
2024-03-02T14:22:24.406Z,101006.09
2024-03-02T14:24:57.859Z,100998.16
2024-03-02T14:27:37.592Z,100996.44
2024-03-02T14:30:18.550Z,100992.78
2024-03-02T14:32:51.413Z,101009.59
2024-03-02T14:35:27.469Z,101001.91
2024-03-02T14:37:59.868Z,101016.25
2024-03-02T14:40:29.559Z,101012.78
2024-03-02T14:42:57.512Z,101009.31
2024-03-02T14:45:26.102Z,101013.84
2024-03-02T14:47:56.173Z,101015.69
2024-03-02T14:50:29.747Z,101037.94
2024-03-02T14:53:01.404Z,101054.00
2024-03-02T14:55:29.761Z,101055.97
2024-03-02T14:57:57.756Z,101055.16
2024-03-02T15:00:25.934Z,101071.94
2024-03-02T15:02:54.268Z,101074.56
2024-03-02T15:05:24.899Z,101080.94
2024-03-02T15:07:56.078Z,101086.63
2024-03-02T15:10:24.054Z,101086.38
2024-03-02T15:12:52.209Z,101091.09
2024-03-02T15:18:26.642Z,101080.75
2024-03-02T15:20:54.629Z,101086.13
2024-03-02T15:25:52.836Z,101100.41
2024-03-02T15:28:20.948Z,101098.69
2024-03-02T15:30:55.907Z,101102.38
2024-03-02T15:36:56.531Z,101104.13
2024-03-02T15:40:41.802Z,101106.72
2024-03-02T15:45:06.625Z,101131.50
2024-03-02T15:47:56.098Z,101131.78
2024-03-02T15:51:06.120Z,101129.16
2024-03-02T15:53:53.333Z,101137.09
2024-03-02T15:56:22.277Z,101138.97
2024-03-02T16:01:19.008Z,101140.50
2024-03-02T16:03:55.493Z,101155.94
2024-03-02T16:07:02.568Z,101156.41
2024-03-02T16:12:55.005Z,101163.72
2024-03-02T16:23:03.074Z,101177.38
2024-03-02T16:27:01.688Z,101162.72
2024-03-02T16:40:09.133Z,101197.03
2024-03-02T16:42:52.240Z,101200.81
2024-03-02T16:45:22.573Z,101203.50
2024-03-02T16:47:53.257Z,101195.63
2024-03-02T16:50:21.430Z,101201.31
2024-03-02T16:56:08.824Z,101208.28
2024-03-02T16:58:55.969Z,101220.13
2024-03-02T17:06:03.898Z,101218.94
2024-03-02T17:11:51.792Z,101214.75
2024-03-02T17:20:24.770Z,101221.34
2024-03-02T17:23:20.899Z,101215.34
2024-03-02T17:29:27.038Z,101237.63
2024-03-02T17:32:20.326Z,101229.50
2024-03-02T17:35:26.409Z,101231.03
2024-03-02T17:38:53.720Z,101226.31
2024-03-02T17:41:22.011Z,101236.41
2024-03-02T17:51:18.527Z,101226.06
2024-03-02T17:54:29.709Z,101216.44
2024-03-02T18:00:29.596Z,101222.88
2024-03-02T18:06:26.358Z,101235.00
2024-03-02T18:09:23.944Z,101226.91
2024-03-02T18:11:52.017Z,101234.31
2024-03-02T18:14:20.254Z,101238.16
2024-03-02T18:16:49.905Z,101241.97
2024-03-02T18:22:31.172Z,101233.09
2024-03-02T18:40:54.113Z,101228.34
2024-03-02T18:43:50.300Z,101217.53
2024-03-02T18:46:18.566Z,101223.97
2024-03-02T18:55:54.472Z,101220.09
2024-03-02T19:17:19.193Z,101217.88
2024-03-02T19:19:52.422Z,101218.47
2024-03-02T19:22:21.000Z,101208.13
2024-03-02T19:24:48.906Z,101205.03
2024-03-02T19:27:19.771Z,101208.38
2024-03-02T19:29:55.981Z,101199.19
2024-03-02T19:32:48.032Z,101202.13
2024-03-02T19:35:17.957Z,101191.56
2024-03-02T19:37:48.631Z,101202.41
2024-03-02T19:40:19.628Z,101187.38
2024-03-02T19:42:48.485Z,101201.34
2024-03-02T19:45:18.460Z,101191.97
2024-03-02T19:47:49.524Z,101170.13
2024-03-02T19:50:19.623Z,101177.53
2024-03-02T19:52:47.825Z,101176.09
2024-03-02T19:55:22.381Z,101178.28
2024-03-02T19:57:52.926Z,101168.09
2024-03-02T20:00:20.908Z,101172.91
2024-03-02T20:02:49.212Z,101165.91
2024-03-02T20:05:17.637Z,101156.78
2024-03-02T20:07:52.869Z,101163.34
2024-03-02T20:10:22.153Z,101147.19
2024-03-02T20:12:50.318Z,101143.94
2024-03-02T20:15:20.611Z,101137.28
2024-03-02T20:17:48.699Z,101137.19
2024-03-02T20:20:18.643Z,101148.94
2024-03-02T20:23:15.938Z,101135.09
2024-03-02T20:25:47.935Z,101118.13
2024-03-02T20:28:19.064Z,101108.84
2024-03-02T20:31:16.209Z,101110.56
2024-03-02T20:33:47.160Z,101113.88
2024-03-02T20:36:17.486Z,101090.63
2024-03-02T20:38:48.516Z,101079.22
2024-03-02T20:41:17.837Z,101074.47
2024-03-02T20:44:18.245Z,101074.09
2024-03-02T20:47:17.043Z,101092.19
2024-03-02T20:49:46.984Z,101083.28
2024-03-02T20:52:16.416Z,101067.53
2024-03-02T20:58:17.062Z,101044.78
2024-03-02T21:00:46.480Z,101046.31
2024-03-02T21:03:17.746Z,101043.66
2024-03-02T21:11:49.904Z,101034.75
2024-03-02T21:14:17.880Z,101049.19
2024-03-02T21:20:17.723Z,101066.13
2024-03-02T21:22:49.264Z,101070.78
2024-03-02T21:28:22.477Z,101060.34
2024-03-02T21:31:16.949Z,101066.59
2024-03-02T21:33:45.218Z,101070.31
2024-03-02T21:36:16.509Z,101068.13
2024-03-02T21:38:44.688Z,101080.00
2024-03-02T21:41:15.620Z,101067.28
2024-03-02T21:47:21.625Z,101046.22
2024-03-02T21:50:21.844Z,101025.50
2024-03-02T21:53:15.649Z,101009.75
2024-03-02T21:55:46.312Z,101009.19
2024-03-02T21:58:14.422Z,101005.00
2024-03-02T22:09:15.559Z,101031.34
2024-03-02T22:12:13.771Z,101025.53
2024-03-02T22:23:16.508Z,101011.38
2024-03-02T22:25:44.478Z,100991.72
2024-03-02T22:28:16.146Z,100978.72
2024-03-02T22:30:44.141Z,100979.75
2024-03-02T22:33:14.761Z,100994.91
2024-03-02T22:35:44.459Z,101004.72
2024-03-02T22:38:16.810Z,100996.03
2024-03-02T22:41:15.602Z,100992.59
2024-03-02T22:43:34.249Z,100977.91
2024-03-02T22:46:43.196Z,100993.31
2024-03-02T22:49:22.644Z,100969.00
2024-03-02T22:52:15.105Z,100979.97
2024-03-02T22:54:43.133Z,100979.31
2024-03-02T22:57:23.293Z,100975.94
2024-03-02T23:00:43.091Z,100978.34
2024-03-02T23:03:15.138Z,100979.78
2024-03-02T23:05:43.032Z,100980.31
2024-03-02T23:08:14.567Z,100976.59
2024-03-02T23:10:44.031Z,100957.44
2024-03-02T23:13:15.816Z,100962.91
2024-03-02T23:15:46.193Z,100952.38
2024-03-02T23:18:16.369Z,100928.63
2024-03-02T23:23:47.550Z,100945.81
2024-03-02T23:26:15.669Z,100922.75
2024-03-02T23:28:43.841Z,100927.81
2024-03-02T23:31:13.248Z,100935.53
2024-03-02T23:36:41.851Z,100946.44
2024-03-02T23:42:13.095Z,100931.16
2024-03-02T23:44:44.549Z,100924.75
2024-03-02T23:53:20.753Z,100917.16
2024-03-02T23:55:52.571Z,100914.06
2024-03-02T23:58:42.794Z,100902.03
